sensor_id;sensor_type;location;lat;lon;timestamp;pressure;altitude;pressure_sealevel;temperature;humidity
8483;BME280;4278;42.668;23.312;2023-11-21T00:00:22;94323.16;;;4.97;100.00
8483;BME280;4278;42.668;23.312;2023-11-21T00:02:49;94322.44;;;5.00;100.00
8483;BME280;4278;42.668;23.312;2023-11-21T00:05:16;94325.13;;;5.00;100.00
8483;BME280;4278;42.668;23.312;2023-11-21T00:07:43;94318.91;;;4.96;100.00
8483;BME280;4278;42.668;23.312;2023-11-21T00:10:11;94320.16;;;5.02;100.00
8483;BME280;4278;42.668;23.312;2023-11-21T00:12:39;94322.44;;;5.00;100.00
8483;BME280;4278;42.668;23.312;2023-11-21T00:15:08;94321.19;;;4.94;100.00
8483;BME280;4278;42.668;23.312;2023-11-21T00:17:37;94333.84;;;4.94;100.00
8483;BME280;4278;42.668;23.312;2023-11-21T00:20:06;94320.75;;;4.92;100.00
8483;BME280;4278;42.668;23.312;2023-11-21T00:22:33;94331.66;;;4.99;100.00
8483;BME280;4278;42.668;23.312;2023-11-21T00:25:00;94318.19;;;4.99;100.00
8483;BME280;4278;42.668;23.312;2023-11-21T00:27:29;94318.94;;;5.00;100.00
8483;BME280;4278;42.668;23.312;2023-11-21T00:29:55;94313.16;;;4.98;100.00
8483;BME280;4278;42.668;23.312;2023-11-21T00:32:22;94306.22;;;4.97;100.00
8483;BME280;4278;42.668;23.312;2023-11-21T00:34:50;94315.53;;;5.03;100.00
8483;BME280;4278;42.668;23.312;2023-11-21T00:37:17;94307.22;;;5.11;100.00
8483;BME280;4278;42.668;23.312;2023-11-21T00:39:44;94313.31;;;5.08;100.00
8483;BME280;4278;42.668;23.312;2023-11-21T00:42:11;94312.22;;;5.13;100.00
8483;BME280;4278;42.668;23.312;2023-11-21T00:44:38;94313.41;;;5.15;100.00
8483;BME280;4278;42.668;23.312;2023-11-21T00:47:05;94326.06;;;5.11;100.00
8483;BME280;4278;42.668;23.312;2023-11-21T00:49:33;94317.09;;;5.04;100.00
8483;BME280;4278;42.668;23.312;2023-11-21T00:52:01;94312.47;;;5.04;100.00
8483;BME280;4278;42.668;23.312;2023-11-21T00:54:28;94307.09;;;5.04;100.00
8483;BME280;4278;42.668;23.312;2023-11-21T00:56:55;94314.66;;;4.95;100.00
8483;BME280;4278;42.668;23.312;2023-11-21T00:59:22;94309.25;;;4.92;100.00
8483;BME280;4278;42.668;23.312;2023-11-21T01:01:49;94310.72;;;4.89;100.00
8483;BME280;4278;42.668;23.312;2023-11-21T01:04:16;94303.69;;;4.81;100.00
8483;BME280;4278;42.668;23.312;2023-11-21T01:06:43;94307.41;;;4.73;100.00
8483;BME280;4278;42.668;23.312;2023-11-21T01:09:12;94306.63;;;4.73;100.00
8483;BME280;4278;42.668;23.312;2023-11-21T01:11:38;94296.94;;;4.68;100.00
8483;BME280;4278;42.668;23.312;2023-11-21T01:14:05;94294.59;;;4.63;100.00
8483;BME280;4278;42.668;23.312;2023-11-21T01:16:34;94253.03;;;4.35;100.00
8483;BME280;4278;42.668;23.312;2023-11-21T01:19:01;94294.94;;;4.62;100.00
8483;BME280;4278;42.668;23.312;2023-11-21T01:21:29;94301.00;;;4.55;100.00
8483;BME280;4278;42.668;23.312;2023-11-21T01:23:57;94305.66;;;4.58;100.00
8483;BME280;4278;42.668;23.312;2023-11-21T01:26:25;94295.72;;;4.62;100.00
8483;BME280;4278;42.668;23.312;2023-11-21T01:28:52;94298.09;;;4.67;100.00
8483;BME280;4278;42.668;23.312;2023-11-21T01:31:18;94308.75;;;4.60;100.00
8483;BME280;4278;42.668;23.312;2023-11-21T01:33:46;94299.00;;;4.52;100.00
8483;BME280;4278;42.668;23.312;2023-11-21T01:36:13;94290.84;;;4.45;100.00
8483;BME280;4278;42.668;23.312;2023-11-21T01:38:40;94295.34;;;4.38;100.00
8483;BME280;4278;42.668;23.312;2023-11-21T01:41:07;94300.75;;;4.41;100.00
8483;BME280;4278;42.668;23.312;2023-11-21T01:43:38;94301.47;;;4.38;100.00
8483;BME280;4278;42.668;23.312;2023-11-21T01:46:05;94302.50;;;4.30;100.00
8483;BME280;4278;42.668;23.312;2023-11-21T01:48:33;94298.66;;;4.31;100.00
8483;BME280;4278;42.668;23.312;2023-11-21T01:51:01;94290.53;;;4.28;100.00
8483;BME280;4278;42.668;23.312;2023-11-21T01:53:28;94283.56;;;4.23;100.00
8483;BME280;4278;42.668;23.312;2023-11-21T01:55:56;94285.34;;;4.16;100.00
8483;BME280;4278;42.668;23.312;2023-11-21T01:58:23;94284.69;;;4.00;100.00
8483;BME280;4278;42.668;23.312;2023-11-21T02:00:51;94294.53;;;3.92;100.00
8483;BME280;4278;42.668;23.312;2023-11-21T02:03:20;94298.06;;;3.96;100.00
8483;BME280;4278;42.668;23.312;2023-11-21T02:05:47;94295.38;;;3.96;100.00
8483;BME280;4278;42.668;23.312;2023-11-21T02:08:14;94289.28;;;3.99;100.00
8483;BME280;4278;42.668;23.312;2023-11-21T02:10:41;94299.44;;;4.09;100.00
8483;BME280;4278;42.668;23.312;2023-11-21T02:13:07;94294.47;;;4.11;100.00
8483;BME280;4278;42.668;23.312;2023-11-21T02:15:35;94296.16;;;4.19;100.00
8483;BME280;4278;42.668;23.312;2023-11-21T02:18:05;94288.09;;;4.19;100.00
8483;BME280;4278;42.668;23.312;2023-11-21T02:20:32;94293.03;;;4.17;100.00
8483;BME280;4278;42.668;23.312;2023-11-21T02:23:01;94291.94;;;4.18;100.00
8483;BME280;4278;42.668;23.312;2023-11-21T02:25:29;94283.56;;;4.23;100.00
8483;BME280;4278;42.668;23.312;2023-11-21T02:27:58;94289.78;;;4.27;100.00
8483;BME280;4278;42.668;23.312;2023-11-21T02:30:25;94285.94;;;4.28;100.00
8483;BME280;4278;42.668;23.312;2023-11-21T02:32:53;94276.81;;;4.10;100.00
8483;BME280;4278;42.668;23.312;2023-11-21T02:35:21;94281.81;;;4.12;100.00
8483;BME280;4278;42.668;23.312;2023-11-21T02:37:48;94287.84;;;4.05;100.00
8483;BME280;4278;42.668;23.312;2023-11-21T02:40:17;94283.72;;;4.11;100.00
8483;BME280;4278;42.668;23.312;2023-11-21T02:42:46;94276.44;;;4.12;100.00
8483;BME280;4278;42.668;23.312;2023-11-21T02:45:13;94271.06;;;4.12;100.00
8483;BME280;4278;42.668;23.312;2023-11-21T02:47:42;94278.72;;;4.10;100.00
8483;BME280;4278;42.668;23.312;2023-11-21T02:50:09;94292.09;;;4.06;100.00
8483;BME280;4278;42.668;23.312;2023-11-21T02:52:36;94282.44;;;4.02;100.00
8483;BME280;4278;42.668;23.312;2023-11-21T02:55:03;94286.13;;;3.94;100.00
8483;BME280;4278;42.668;23.312;2023-11-21T02:57:32;94278.06;;;3.94;100.00
8483;BME280;4278;42.668;23.312;2023-11-21T02:59:59;94278.47;;;3.96;100.00
8483;BME280;4278;42.668;23.312;2023-11-21T03:02:26;94277.97;;;3.90;100.00
8483;BME280;4278;42.668;23.312;2023-11-21T03:04:53;94275.97;;;3.83;100.00
8483;BME280;4278;42.668;23.312;2023-11-21T03:07:20;94272.78;;;3.78;100.00
8483;BME280;4278;42.668;23.312;2023-11-21T03:09:47;94275.19;;;3.83;100.00
8483;BME280;4278;42.668;23.312;2023-11-21T03:12:14;94271.72;;;3.82;100.00
8483;BME280;4278;42.668;23.312;2023-11-21T03:14:42;94278.66;;;3.83;100.00
8483;BME280;4278;42.668;23.312;2023-11-21T03:17:09;94276.50;;;3.93;100.00
8483;BME280;4278;42.668;23.312;2023-11-21T03:19:37;94280.56;;;3.83;100.00
8483;BME280;4278;42.668;23.312;2023-11-21T03:22:03;94289.31;;;3.80;100.00
8483;BME280;4278;42.668;23.312;2023-11-21T03:24:30;94292.00;;;3.80;100.00
8483;BME280;4278;42.668;23.312;2023-11-21T03:26:57;94289.47;;;3.68;100.00
8483;BME280;4278;42.668;23.312;2023-11-21T03:29:24;94298.09;;;3.77;100.00
8483;BME280;4278;42.668;23.312;2023-11-21T03:31:52;94305.88;;;3.82;100.00
8483;BME280;4278;42.668;23.312;2023-11-21T03:34:24;94302.75;;;3.80;100.00
8483;BME280;4278;42.668;23.312;2023-11-21T03:36:52;94299.53;;;3.71;100.00
8483;BME280;4278;42.668;23.312;2023-11-21T03:39:19;94290.31;;;3.72;100.00
8483;BME280;4278;42.668;23.312;2023-11-21T03:41:47;94296.59;;;3.79;100.00
8483;BME280;4278;42.668;23.312;2023-11-21T03:44:14;94290.94;;;3.84;100.00
8483;BME280;4278;42.668;23.312;2023-11-21T03:46:43;94286.22;;;3.78;100.00
8483;BME280;4278;42.668;23.312;2023-11-21T03:49:11;94270.69;;;3.68;100.00
8483;BME280;4278;42.668;23.312;2023-11-21T03:51:38;94266.31;;;3.60;100.00
8483;BME280;4278;42.668;23.312;2023-11-21T03:54:05;94272.03;;;3.58;100.00
8483;BME280;4278;42.668;23.312;2023-11-21T03:56:32;94266.41;;;3.44;100.00
8483;BME280;4278;42.668;23.312;2023-11-21T03:58:58;94267.38;;;3.55;100.00
8483;BME280;4278;42.668;23.312;2023-11-21T04:01:25;94274.34;;;3.60;100.00
8483;BME280;4278;42.668;23.312;2023-11-21T04:03:52;94262.34;;;3.54;100.00
8483;BME280;4278;42.668;23.312;2023-11-21T04:06:20;94260.34;;;3.47;100.00
8483;BME280;4278;42.668;23.312;2023-11-21T04:08:47;94262.22;;;3.47;100.00
8483;BME280;4278;42.668;23.312;2023-11-21T04:11:14;94246.69;;;3.37;100.00
8483;BME280;4278;42.668;23.312;2023-11-21T04:13:41;94250.09;;;3.34;100.00
8483;BME280;4278;42.668;23.312;2023-11-21T04:16:09;94224.94;;;3.23;100.00
8483;BME280;4278;42.668;23.312;2023-11-21T04:18:36;94249.09;;;3.42;100.00
8483;BME280;4278;42.668;23.312;2023-11-21T04:21:04;94251.63;;;3.54;100.00
8483;BME280;4278;42.668;23.312;2023-11-21T04:23:33;94267.00;;;3.57;100.00
8483;BME280;4278;42.668;23.312;2023-11-21T04:26:00;94260.09;;;3.56;100.00
8483;BME280;4278;42.668;23.312;2023-11-21T04:28:27;94258.56;;;3.55;100.00
8483;BME280;4278;42.668;23.312;2023-11-21T04:30:54;94250.78;;;3.50;100.00
8483;BME280;4278;42.668;23.312;2023-11-21T04:33:21;94268.44;;;3.70;100.00
8483;BME280;4278;42.668;23.312;2023-11-21T04:35:48;94261.78;;;3.64;100.00
8483;BME280;4278;42.668;23.312;2023-11-21T04:38:14;94268.00;;;3.68;100.00
8483;BME280;4278;42.668;23.312;2023-11-21T04:40:43;94247.50;;;3.60;100.00
8483;BME280;4278;42.668;23.312;2023-11-21T04:43:10;94261.09;;;3.67;100.00
8483;BME280;4278;42.668;23.312;2023-11-21T04:45:37;94262.16;;;3.62;100.00
8483;BME280;4278;42.668;23.312;2023-11-21T04:48:04;94269.00;;;3.60;100.00
8483;BME280;4278;42.668;23.312;2023-11-21T04:50:32;94271.66;;;3.60;100.00
8483;BME280;4278;42.668;23.312;2023-11-21T04:52:58;94271.28;;;3.58;100.00
8483;BME280;4278;42.668;23.312;2023-11-21T04:55:25;94265.59;;;3.63;100.00
8483;BME280;4278;42.668;23.312;2023-11-21T04:57:55;94257.41;;;3.56;100.00
8483;BME280;4278;42.668;23.312;2023-11-21T05:00:21;94274.78;;;3.62;100.00
8483;BME280;4278;42.668;23.312;2023-11-21T05:02:49;94270.59;;;3.64;100.00
8483;BME280;4278;42.668;23.312;2023-11-21T05:05:16;94278.09;;;3.74;100.00
8483;BME280;4278;42.668;23.312;2023-11-21T05:07:42;94277.75;;;3.76;100.00
8483;BME280;4278;42.668;23.312;2023-11-21T05:10:09;94283.16;;;3.79;100.00
8483;BME280;4278;42.668;23.312;2023-11-21T05:12:37;94261.03;;;3.86;100.00
8483;BME280;4278;42.668;23.312;2023-11-21T05:15:07;94249.75;;;3.77;100.00
8483;BME280;4278;42.668;23.312;2023-11-21T05:17:36;94258.22;;;3.79;100.00
8483;BME280;4278;42.668;23.312;2023-11-21T05:20:05;94259.97;;;3.91;100.00
8483;BME280;4278;42.668;23.312;2023-11-21T05:22:34;94256.44;;;3.87;100.00
8483;BME280;4278;42.668;23.312;2023-11-21T05:25:01;94250.66;;;3.84;100.00
8483;BME280;4278;42.668;23.312;2023-11-21T05:27:28;94260.69;;;3.88;100.00
8483;BME280;4278;42.668;23.312;2023-11-21T05:29:56;94267.94;;;3.87;100.00
8483;BME280;4278;42.668;23.312;2023-11-21T05:32:24;94266.84;;;3.88;100.00
8483;BME280;4278;42.668;23.312;2023-11-21T05:34:52;94270.63;;;3.87;100.00
8483;BME280;4278;42.668;23.312;2023-11-21T05:37:19;94284.06;;;3.87;100.00
8483;BME280;4278;42.668;23.312;2023-11-21T05:39:46;94277.28;;;3.93;100.00
8483;BME280;4278;42.668;23.312;2023-11-21T05:42:12;94280.81;;;3.97;100.00
8483;BME280;4278;42.668;23.312;2023-11-21T05:44:41;94281.22;;;3.99;100.00
8483;BME280;4278;42.668;23.312;2023-11-21T05:47:09;94283.91;;;3.99;100.00
8483;BME280;4278;42.668;23.312;2023-11-21T05:49:38;94274.28;;;3.98;100.00
8483;BME280;4278;42.668;23.312;2023-11-21T05:52:05;94237.94;;;3.81;100.00
8483;BME280;4278;42.668;23.312;2023-11-21T05:54:32;94278.66;;;4.06;100.00
8483;BME280;4278;42.668;23.312;2023-11-21T05:57:02;94271.88;;;4.12;100.00
8483;BME280;4278;42.668;23.312;2023-11-21T05:59:29;94263.38;;;4.10;100.00
8483;BME280;4278;42.668;23.312;2023-11-21T06:01:56;94223.00;;;3.84;100.00
8483;BME280;4278;42.668;23.312;2023-11-21T06:04:24;94276.34;;;4.27;100.00
8483;BME280;4278;42.668;23.312;2023-11-21T06:06:52;94276.44;;;4.34;100.00
8483;BME280;4278;42.668;23.312;2023-11-21T06:09:19;94270.63;;;4.32;100.00
8483;BME280;4278;42.668;23.312;2023-11-21T06:11:47;94276.88;;;4.36;100.00
8483;BME280;4278;42.668;23.312;2023-11-21T06:14:14;94272.03;;;4.45;100.00
8483;BME280;4278;42.668;23.312;2023-11-21T06:16:43;94282.06;;;4.48;100.00
8483;BME280;4278;42.668;23.312;2023-11-21T06:19:10;94287.97;;;4.57;100.00
8483;BME280;4278;42.668;23.312;2023-11-21T06:21:36;94288.78;;;4.61;100.00
8483;BME280;4278;42.668;23.312;2023-11-21T06:24:05;94290.84;;;4.71;100.00
8483;BME280;4278;42.668;23.312;2023-11-21T06:26:32;94287.91;;;4.80;100.00
8483;BME280;4278;42.668;23.312;2023-11-21T06:28:59;94295.28;;;4.83;100.00
8483;BME280;4278;42.668;23.312;2023-11-21T06:31:28;94294.47;;;4.82;100.00
8483;BME280;4278;42.668;23.312;2023-11-21T06:33:55;94289.91;;;4.86;100.00
8483;BME280;4278;42.668;23.312;2023-11-21T06:36:23;94300.25;;;5.10;100.00
8483;BME280;4278;42.668;23.312;2023-11-21T06:38:50;94304.41;;;5.04;100.00
8483;BME280;4278;42.668;23.312;2023-11-21T06:41:18;94308.34;;;5.10;100.00
8483;BME280;4278;42.668;23.312;2023-11-21T06:43:45;94306.44;;;5.11;100.00
8483;BME280;4278;42.668;23.312;2023-11-21T06:46:12;94303.50;;;5.19;100.00
8483;BME280;4278;42.668;23.312;2023-11-21T06:48:41;94310.50;;;5.27;100.00
8483;BME280;4278;42.668;23.312;2023-11-21T06:51:08;94313.31;;;5.34;100.00
8483;BME280;4278;42.668;23.312;2023-11-21T06:53:36;94320.69;;;5.41;100.00
8483;BME280;4278;42.668;23.312;2023-11-21T06:56:03;94319.19;;;5.43;100.00
8483;BME280;4278;42.668;23.312;2023-11-21T06:58:32;94316.16;;;5.48;100.00
8483;BME280;4278;42.668;23.312;2023-11-21T07:00:59;94309.22;;;5.47;100.00
8483;BME280;4278;42.668;23.312;2023-11-21T07:03:26;94322.03;;;5.54;100.00
8483;BME280;4278;42.668;23.312;2023-11-21T07:05:53;94320.19;;;5.61;100.00
8483;BME280;4278;42.668;23.312;2023-11-21T07:08:19;94312.09;;;5.61;100.00
8483;BME280;4278;42.668;23.312;2023-11-21T07:10:46;94314.13;;;5.71;100.00
8483;BME280;4278;42.668;23.312;2023-11-21T07:13:13;94308.81;;;5.78;100.00
8483;BME280;4278;42.668;23.312;2023-11-21T07:15:41;94302.00;;;5.85;100.00
8483;BME280;4278;42.668;23.312;2023-11-21T07:18:08;94309.75;;;5.90;100.00
8483;BME280;4278;42.668;23.312;2023-11-21T07:20:35;94306.75;;;5.95;100.00
8483;BME280;4278;42.668;23.312;2023-11-21T07:23:02;94299.13;;;6.04;100.00
8483;BME280;4278;42.668;23.312;2023-11-21T07:25:31;94307.00;;;6.23;100.00
8483;BME280;4278;42.668;23.312;2023-11-21T07:27:59;94321.66;;;6.22;100.00
8483;BME280;4278;42.668;23.312;2023-11-21T07:30:26;94311.25;;;6.20;100.00
8483;BME280;4278;42.668;23.312;2023-11-21T07:32:55;94321.00;;;6.35;100.00
8483;BME280;4278;42.668;23.312;2023-11-21T07:35:22;94317.13;;;6.33;100.00
8483;BME280;4278;42.668;23.312;2023-11-21T07:37:49;94311.13;;;6.50;100.00
8483;BME280;4278;42.668;23.312;2023-11-21T07:40:16;94319.81;;;6.29;100.00
8483;BME280;4278;42.668;23.312;2023-11-21T07:42:43;94303.25;;;6.31;100.00
8483;BME280;4278;42.668;23.312;2023-11-21T07:45:10;94309.50;;;6.42;100.00
8483;BME280;4278;42.668;23.312;2023-11-21T07:47:38;94311.06;;;6.46;100.00
8483;BME280;4278;42.668;23.312;2023-11-21T07:50:08;94310.75;;;6.51;100.00
8483;BME280;4278;42.668;23.312;2023-11-21T07:52:35;94311.13;;;6.50;100.00
8483;BME280;4278;42.668;23.312;2023-11-21T07:55:02;94310.72;;;6.48;100.00
8483;BME280;4278;42.668;23.312;2023-11-21T07:57:29;94307.34;;;6.58;100.00
8483;BME280;4278;42.668;23.312;2023-11-21T07:59:56;94297.38;;;6.69;100.00
8483;BME280;4278;42.668;23.312;2023-11-21T08:02:23;94298.59;;;6.75;100.00
8483;BME280;4278;42.668;23.312;2023-11-21T08:04:51;94294.44;;;6.84;100.00
8483;BME280;4278;42.668;23.312;2023-11-21T08:07:19;94293.00;;;7.01;100.00
8483;BME280;4278;42.668;23.312;2023-11-21T08:09:47;94292.28;;;7.11;100.00
8483;BME280;4278;42.668;23.312;2023-11-21T08:12:15;94298.50;;;7.18;100.00
8483;BME280;4278;42.668;23.312;2023-11-21T08:14:43;94300.56;;;7.39;100.00
8483;BME280;4278;42.668;23.312;2023-11-21T08:17:10;94291.31;;;7.43;100.00
8483;BME280;4278;42.668;23.312;2023-11-21T08:19:37;94296.03;;;7.57;100.00
8483;BME280;4278;42.668;23.312;2023-11-21T08:22:03;94307.25;;;7.66;100.00
8483;BME280;4278;42.668;23.312;2023-11-21T08:24:35;94291.84;;;7.77;100.00
8483;BME280;4278;42.668;23.312;2023-11-21T08:27:03;94287.25;;;7.88;100.00
8483;BME280;4278;42.668;23.312;2023-11-21T08:29:32;94288.44;;;8.01;100.00
8483;BME280;4278;42.668;23.312;2023-11-21T08:31:59;94299.66;;;8.10;100.00
8483;BME280;4278;42.668;23.312;2023-11-21T08:34:26;94301.25;;;8.18;100.00
8483;BME280;4278;42.668;23.312;2023-11-21T08:36:53;94291.94;;;8.09;100.00
8483;BME280;4278;42.668;23.312;2023-11-21T08:39:21;94293.97;;;8.29;100.00
8483;BME280;4278;42.668;23.312;2023-11-21T08:41:51;94299.78;;;8.38;100.00
8483;BME280;4278;42.668;23.312;2023-11-21T08:44:17;94304.03;;;8.39;100.00
8483;BME280;4278;42.668;23.312;2023-11-21T08:46:44;94302.06;;;8.43;100.00
8483;BME280;4278;42.668;23.312;2023-11-21T08:49:12;94301.31;;;8.50;100.00
8483;BME280;4278;42.668;23.312;2023-11-21T08:51:39;94285.06;;;8.57;100.00
8483;BME280;4278;42.668;23.312;2023-11-21T08:54:06;94285.09;;;8.64;100.00
8483;BME280;4278;42.668;23.312;2023-11-21T08:56:33;94280.44;;;8.78;100.00
8483;BME280;4278;42.668;23.312;2023-11-21T08:59:02;94275.03;;;8.82;100.00
8483;BME280;4278;42.668;23.312;2023-11-21T09:01:29;94272.31;;;8.85;100.00
8483;BME280;4278;42.668;23.312;2023-11-21T09:03:56;94256.06;;;8.92;100.00
8483;BME280;4278;42.668;23.312;2023-11-21T09:06:24;94259.53;;;9.00;100.00
8483;BME280;4278;42.668;23.312;2023-11-21T09:08:50;94257.97;;;9.13;100.00
8483;BME280;4278;42.668;23.312;2023-11-21T09:11:18;94238.59;;;9.18;100.00
8483;BME280;4278;42.668;23.312;2023-11-21T09:13:44;94235.47;;;9.23;100.00
8483;BME280;4278;42.668;23.312;2023-11-21T09:16:14;94227.78;;;9.14;100.00
8483;BME280;4278;42.668;23.312;2023-11-21T09:18:41;94222.31;;;9.21;100.00
8483;BME280;4278;42.668;23.312;2023-11-21T09:21:08;94228.50;;;9.32;100.00
8483;BME280;4278;42.668;23.312;2023-11-21T09:23:35;94225.81;;;9.25;100.00
8483;BME280;4278;42.668;23.312;2023-11-21T09:26:02;94216.13;;;9.31;100.00
8483;BME280;4278;42.668;23.312;2023-11-21T09:28:30;94216.13;;;9.31;100.00
8483;BME280;4278;42.668;23.312;2023-11-21T09:30:57;94200.56;;;9.42;100.00
8483;BME280;4278;42.668;23.312;2023-11-21T09:33:25;94194.44;;;9.24;100.00
8483;BME280;4278;42.668;23.312;2023-11-21T09:35:52;94171.63;;;9.18;100.00
8483;BME280;4278;42.668;23.312;2023-11-21T09:38:19;94173.50;;;9.32;100.00
8483;BME280;4278;42.668;23.312;2023-11-21T09:40:46;94175.06;;;9.26;100.00
8483;BME280;4278;42.668;23.312;2023-11-21T09:43:16;94164.19;;;9.43;100.00
8483;BME280;4278;42.668;23.312;2023-11-21T09:45:46;94171.88;;;9.48;100.00
8483;BME280;4278;42.668;23.312;2023-11-21T09:48:14;94169.91;;;9.56;100.00
8483;BME280;4278;42.668;23.312;2023-11-21T09:50:43;94145.44;;;9.67;100.00
8483;BME280;4278;42.668;23.312;2023-11-21T09:53:16;94132.94;;;9.87;100.00
8483;BME280;4278;42.668;23.312;2023-11-21T09:55:46;94139.72;;;10.16;100.00
8483;BME280;4278;42.668;23.312;2023-11-21T09:58:16;94126.50;;;10.21;100.00
8483;BME280;4278;42.668;23.312;2023-11-21T10:00:43;94130.41;;;10.17;100.00
8483;BME280;4278;42.668;23.312;2023-11-21T10:03:11;94125.78;;;10.14;100.00
8483;BME280;4278;42.668;23.312;2023-11-21T10:05:39;94139.44;;;10.51;100.00
8483;BME280;4278;42.668;23.312;2023-11-21T10:08:09;94126.00;;;10.74;100.00
8483;BME280;4278;42.668;23.312;2023-11-21T10:10:37;94129.00;;;10.86;100.00
8483;BME280;4278;42.668;23.312;2023-11-21T10:13:06;94128.56;;;10.91;100.00
8483;BME280;4278;42.668;23.312;2023-11-21T10:15:36;94124.94;;;11.01;100.00
8483;BME280;4278;42.668;23.312;2023-11-21T10:18:04;94121.66;;;11.17;100.00
8483;BME280;4278;42.668;23.312;2023-11-21T10:20:32;94114.22;;;11.51;100.00
8483;BME280;4278;42.668;23.312;2023-11-21T10:23:00;94109.50;;;11.85;99.48
8483;BME280;4278;42.668;23.312;2023-11-21T10:25:30;94107.19;;;12.10;98.04
8483;BME280;4278;42.668;23.312;2023-11-21T10:27:58;94105.53;;;12.16;96.47
8483;BME280;4278;42.668;23.312;2023-11-21T10:30:32;94098.97;;;11.87;98.38
8483;BME280;4278;42.668;23.312;2023-11-21T10:33:02;94106.56;;;11.99;98.19
8483;BME280;4278;42.668;23.312;2023-11-21T10:35:42;94092.03;;;12.32;96.51
8483;BME280;4278;42.668;23.312;2023-11-21T10:38:12;94105.13;;;12.64;93.99
8483;BME280;4278;42.668;23.312;2023-11-21T10:40:41;94097.19;;;12.92;93.04
8483;BME280;4278;42.668;23.312;2023-11-21T10:43:10;94085.94;;;12.90;92.91
8483;BME280;4278;42.668;23.312;2023-11-21T10:45:38;94081.88;;;12.79;92.83
8483;BME280;4278;42.668;23.312;2023-11-21T10:48:06;94088.22;;;12.72;94.20
8483;BME280;4278;42.668;23.312;2023-11-21T10:50:34;94098.25;;;12.56;94.29
8483;BME280;4278;42.668;23.312;2023-11-21T10:53:02;94083.50;;;12.30;94.38
8483;BME280;4278;42.668;23.312;2023-11-21T10:55:30;94069.91;;;12.07;95.62
8483;BME280;4278;42.668;23.312;2023-11-21T10:58:00;94073.22;;;11.95;95.65
8483;BME280;4278;42.668;23.312;2023-11-21T11:00:30;94069.31;;;11.70;96.65
8483;BME280;4278;42.668;23.312;2023-11-21T11:02:58;94064.34;;;11.65;96.35
8483;BME280;4278;42.668;23.312;2023-11-21T11:05:27;94075.22;;;11.61;97.08
8483;BME280;4278;42.668;23.312;2023-11-21T11:07:58;94072.25;;;11.52;97.51
8483;BME280;4278;42.668;23.312;2023-11-21T11:10:29;94056.84;;;11.42;97.37
8483;BME280;4278;42.668;23.312;2023-11-21T11:12:56;94064.97;;;11.46;97.06
8483;BME280;4278;42.668;23.312;2023-11-21T11:15:25;94060.34;;;11.43;97.43
8483;BME280;4278;42.668;23.312;2023-11-21T11:17:53;94063.00;;;11.46;97.79
8483;BME280;4278;42.668;23.312;2023-11-21T11:20:24;94038.53;;;11.46;97.35
8483;BME280;4278;42.668;23.312;2023-11-21T11:23:04;94038.06;;;11.51;95.95
8483;BME280;4278;42.668;23.312;2023-11-21T11:25:45;94025.50;;;11.34;96.93
8483;BME280;4278;42.668;23.312;2023-11-21T11:28:17;94016.50;;;11.37;97.33
8483;BME280;4278;42.668;23.312;2023-11-21T11:30:56;94016.88;;;11.39;96.70
8483;BME280;4278;42.668;23.312;2023-11-21T11:33:34;94018.81;;;11.39;96.75
8483;BME280;4278;42.668;23.312;2023-11-21T11:36:06;94014.53;;;11.41;96.11
8483;BME280;4278;42.668;23.312;2023-11-21T11:38:37;94013.22;;;11.49;96.06
8483;BME280;4278;42.668;23.312;2023-11-21T11:41:05;94018.81;;;11.39;96.76
8483;BME280;4278;42.668;23.312;2023-11-21T11:43:32;94015.44;;;11.31;98.36
8483;BME280;4278;42.668;23.312;2023-11-21T11:46:11;94026.72;;;11.29;98.81
8483;BME280;4278;42.668;23.312;2023-11-21T11:48:40;94043.81;;;11.30;99.23
8483;BME280;4278;42.668;23.312;2023-11-21T11:51:11;94017.31;;;11.07;100.00
8483;BME280;4278;42.668;23.312;2023-11-21T11:53:40;94030.13;;;11.07;100.00
8483;BME280;4278;42.668;23.312;2023-11-21T11:56:22;94035.56;;;11.07;100.00
8483;BME280;4278;42.668;23.312;2023-11-21T11:58:51;94029.81;;;11.01;100.00
8483;BME280;4278;42.668;23.312;2023-11-21T12:01:20;94010.69;;;11.08;100.00
8483;BME280;4278;42.668;23.312;2023-11-21T12:04:24;94020.63;;;10.92;100.00
8483;BME280;4278;42.668;23.312;2023-11-21T12:06:59;94024.25;;;10.82;100.00
8483;BME280;4278;42.668;23.312;2023-11-21T12:09:28;94025.16;;;10.72;100.00
8483;BME280;4278;42.668;23.312;2023-11-21T12:11:56;94026.00;;;10.65;100.00
8483;BME280;4278;42.668;23.312;2023-11-21T12:14:24;94040.00;;;10.60;100.00
8483;BME280;4278;42.668;23.312;2023-11-21T12:16:52;94029.25;;;10.50;100.00
8483;BME280;4278;42.668;23.312;2023-11-21T12:19:20;94036.72;;;10.42;100.00
8483;BME280;4278;42.668;23.312;2023-11-21T12:21:48;94022.53;;;10.28;100.00
8483;BME280;4278;42.668;23.312;2023-11-21T12:24:16;94024.19;;;10.15;100.00
8483;BME280;4278;42.668;23.312;2023-11-21T12:26:43;94012.97;;;10.13;100.00
8483;BME280;4278;42.668;23.312;2023-11-21T12:29:11;94009.09;;;10.14;100.00
8483;BME280;4278;42.668;23.312;2023-11-21T12:31:37;94016.41;;;10.17;100.00
8483;BME280;4278;42.668;23.312;2023-11-21T12:34:06;94029.97;;;10.20;100.00
8483;BME280;4278;42.668;23.312;2023-11-21T12:36:37;94025.81;;;10.05;100.00
8483;BME280;4278;42.668;23.312;2023-11-21T12:39:04;94006.50;;;9.96;100.00
8483;BME280;4278;42.668;23.312;2023-11-21T12:41:31;94008.84;;;9.94;100.00
8483;BME280;4278;42.668;23.312;2023-11-21T12:43:58;94009.66;;;9.88;100.00
8483;BME280;4278;42.668;23.312;2023-11-21T12:46:25;94009.28;;;9.89;100.00
8483;BME280;4278;42.668;23.312;2023-11-21T12:48:54;93996.88;;;9.92;100.00
8483;BME280;4278;42.668;23.312;2023-11-21T12:51:23;93997.97;;;9.98;100.00
8483;BME280;4278;42.668;23.312;2023-11-21T12:53:52;93975.09;;;9.95;100.00
8483;BME280;4278;42.668;23.312;2023-11-21T12:56:21;93981.69;;;9.98;100.00
8483;BME280;4278;42.668;23.312;2023-11-21T12:58:50;93983.63;;;9.97;100.00
8483;BME280;4278;42.668;23.312;2023-11-21T13:01:20;93972.69;;;10.11;100.00
8483;BME280;4278;42.668;23.312;2023-11-21T13:03:48;93973.97;;;9.96;100.00
8483;BME280;4278;42.668;23.312;2023-11-21T13:06:17;93976.28;;;9.98;100.00
8483;BME280;4278;42.668;23.312;2023-11-21T13:08:46;93966.97;;;9.95;100.00
8483;BME280;4278;42.668;23.312;2023-11-21T13:11:14;93972.81;;;9.94;100.00
8483;BME280;4278;42.668;23.312;2023-11-21T13:13:42;93976.66;;;9.96;100.00